createdAt,value
2018-09-06T00:01:44.290Z,28.63
2018-09-06T00:04:12.798Z,21.93
2018-09-06T00:06:41.299Z,18.27
2018-09-06T00:09:10.327Z,23.40
2018-09-06T00:11:38.870Z,24.00
2018-09-06T00:14:07.359Z,20.47
2018-09-06T00:16:42.499Z,21.27
2018-09-06T00:19:10.986Z,27.80
2018-09-06T00:21:39.521Z,21.00
2018-09-06T00:24:08.014Z,20.87
2018-09-06T00:26:36.522Z,24.27
2018-09-06T00:29:05.011Z,22.07
2018-09-06T00:31:33.938Z,22.00
2018-09-06T00:34:02.458Z,19.70
2018-09-06T00:36:30.967Z,27.53
2018-09-06T00:38:59.498Z,26.93
2018-09-06T00:41:28.029Z,24.37
2018-09-06T00:43:56.658Z,22.87
2018-09-06T00:46:25.123Z,19.93
2018-09-06T00:48:53.601Z,25.90
2018-09-06T00:51:22.112Z,24.47
2018-09-06T00:53:50.610Z,25.53
2018-09-06T00:56:19.138Z,23.77
2018-09-06T00:58:47.680Z,26.37
2018-09-06T01:01:16.206Z,25.93
2018-09-06T01:03:44.701Z,25.43
2018-09-06T01:06:13.203Z,25.47
2018-09-06T01:08:41.860Z,25.30
2018-09-06T01:11:10.554Z,25.43
2018-09-06T01:13:39.118Z,27.80
2018-09-06T01:16:07.925Z,28.73
2018-09-06T01:18:36.598Z,24.83
2018-09-06T01:21:05.261Z,25.90
2018-09-06T01:23:33.828Z,27.33
2018-09-06T01:26:02.477Z,21.87
2018-09-06T01:28:31.001Z,26.00
2018-09-06T01:30:59.568Z,28.70
2018-09-06T01:33:28.215Z,26.23
2018-09-06T01:36:01.821Z,27.80
2018-09-06T01:38:30.349Z,29.83
2018-09-06T01:40:58.912Z,26.80
2018-09-06T01:43:27.449Z,24.90
2018-09-06T01:45:55.945Z,24.70
2018-09-06T01:48:24.473Z,34.60
2018-09-06T01:50:53.030Z,32.47
2018-09-06T01:53:21.929Z,27.57
2018-09-06T01:55:50.431Z,28.10
2018-09-06T01:58:18.902Z,27.93
2018-09-06T02:00:47.393Z,29.73
2018-09-06T02:03:15.861Z,29.07
2018-09-06T02:05:44.688Z,31.20
2018-09-06T02:08:13.304Z,26.40
2018-09-06T02:10:41.802Z,28.30
2018-09-06T02:13:10.324Z,32.30
2018-09-06T02:15:38.878Z,30.13
2018-09-06T02:18:07.397Z,31.90
2018-09-06T02:20:35.848Z,31.20
2018-09-06T02:23:04.320Z,27.43
2018-09-06T02:25:32.857Z,32.17
2018-09-06T02:28:01.361Z,32.93
2018-09-06T02:30:29.845Z,36.33
2018-09-06T02:32:58.309Z,38.83
2018-09-06T02:35:26.819Z,34.43
2018-09-06T02:37:55.374Z,35.63
2018-09-06T02:40:29.206Z,36.40
2018-09-06T02:42:57.690Z,38.03
2018-09-06T02:45:26.163Z,38.27
2018-09-06T02:47:55.754Z,46.00
2018-09-06T02:50:29.607Z,44.20
2018-09-06T02:52:58.386Z,42.53
2018-09-06T02:55:28.365Z,48.73
2018-09-06T02:57:57.254Z,45.10
2018-09-06T03:00:29.128Z,46.00
2018-09-06T03:02:57.621Z,46.33
2018-09-06T03:05:26.772Z,55.33
2018-09-06T03:07:56.529Z,49.57
2018-09-06T03:10:26.260Z,49.10
2018-09-06T03:12:54.764Z,47.60
2018-09-06T03:15:23.464Z,44.70
2018-09-06T03:17:51.945Z,48.70
2018-09-06T03:20:20.410Z,59.23
2018-09-06T03:22:48.948Z,55.70
2018-09-06T03:25:17.442Z,49.00
2018-09-06T03:27:45.952Z,51.63
2018-09-06T03:30:14.519Z,55.77
2018-09-06T03:32:43.011Z,51.13
2018-09-06T03:35:11.517Z,50.57
2018-09-06T03:37:40.153Z,51.90
2018-09-06T03:40:08.649Z,57.37
2018-09-06T03:42:37.152Z,51.90
2018-09-06T03:45:05.675Z,45.30
2018-09-06T03:47:34.214Z,53.10
2018-09-06T03:50:02.714Z,49.87
2018-09-06T03:52:31.218Z,52.73
2018-09-06T03:54:59.823Z,50.53
2018-09-06T03:57:28.352Z,46.17
2018-09-06T03:59:57.288Z,50.87
2018-09-06T04:02:25.790Z,49.30
2018-09-06T04:04:54.297Z,54.67
2018-09-06T04:07:22.867Z,52.90
2018-09-06T04:09:51.422Z,48.23
2018-09-06T04:12:19.910Z,50.10
2018-09-06T04:14:48.441Z,46.20
2018-09-06T04:17:16.996Z,60.00
2018-09-06T04:19:45.535Z,54.70
2018-09-06T04:22:14.043Z,47.37
2018-09-06T04:24:42.518Z,53.70
2018-09-06T04:27:11.086Z,49.87
2018-09-06T04:29:39.608Z,51.13
2018-09-06T04:32:08.206Z,52.17
2018-09-06T04:34:36.750Z,60.50
2018-09-06T04:37:05.607Z,55.03
2018-09-06T04:39:34.171Z,52.43
2018-09-06T04:42:02.693Z,52.37
2018-09-06T04:44:31.304Z,52.20
2018-09-06T04:46:59.761Z,54.50
2018-09-06T04:49:28.238Z,51.60
2018-09-06T04:51:56.767Z,58.83
2018-09-06T04:54:25.347Z,52.00
2018-09-06T04:56:53.867Z,55.40
2018-09-06T04:59:22.342Z,56.77
2018-09-06T05:01:50.855Z,57.97
2018-09-06T05:04:19.403Z,52.27
2018-09-06T05:06:48.890Z,60.50
2018-09-06T05:09:17.381Z,53.27
2018-09-06T05:11:45.921Z,52.07
2018-09-06T05:14:14.485Z,52.73
2018-09-06T05:16:43.031Z,51.20
2018-09-06T05:19:11.526Z,48.20
2018-09-06T05:21:40.061Z,50.40
2018-09-06T05:24:08.608Z,56.83
2018-09-06T05:26:37.155Z,49.27
2018-09-06T05:29:05.790Z,52.17
2018-09-06T05:31:34.316Z,50.33
2018-09-06T05:34:02.849Z,44.57
2018-09-06T05:36:31.457Z,51.90
2018-09-06T05:39:00.071Z,47.87
2018-09-06T05:41:28.608Z,53.63
2018-09-06T05:43:57.148Z,49.63
2018-09-06T05:46:25.765Z,48.70
2018-09-06T05:48:54.363Z,53.53
2018-09-06T05:51:22.881Z,41.97
2018-09-06T05:53:51.402Z,46.30
2018-09-06T05:56:19.919Z,44.37
2018-09-06T05:58:48.452Z,47.53
2018-09-06T06:01:17.339Z,50.07
2018-09-06T06:03:45.963Z,43.63
2018-09-06T06:06:14.846Z,51.30
2018-09-06T06:08:49.329Z,41.40
2018-09-06T06:11:18.554Z,43.50
2018-09-06T06:13:47.080Z,52.80
2018-09-06T06:16:15.606Z,45.93
2018-09-06T06:18:44.226Z,51.60
2018-09-06T06:21:12.931Z,45.57
2018-09-06T06:23:41.502Z,45.90
2018-09-06T06:26:10.091Z,47.03
2018-09-06T06:28:38.624Z,43.97
2018-09-06T06:31:07.183Z,47.37
2018-09-06T06:33:36.301Z,45.27
2018-09-06T06:36:04.860Z,46.30
2018-09-06T06:38:33.434Z,48.30
2018-09-06T06:41:01.959Z,48.40
2018-09-06T06:43:30.550Z,48.30
2018-09-06T06:45:59.090Z,51.50
2018-09-06T06:48:27.627Z,49.80
2018-09-06T06:50:56.177Z,47.53
2018-09-06T06:53:24.729Z,59.90
2018-09-06T06:55:53.577Z,47.63
2018-09-06T06:58:22.083Z,50.87
2018-09-06T07:00:50.634Z,51.67
2018-09-06T07:03:19.155Z,51.03
2018-09-06T07:05:47.642Z,50.53
2018-09-06T07:08:16.431Z,55.80
2018-09-06T07:10:44.921Z,55.20
2018-09-06T07:13:13.462Z,68.30
2018-09-06T07:15:42.086Z,58.77
2018-09-06T07:18:10.726Z,59.07
2018-09-06T07:20:39.222Z,55.40
2018-09-06T07:23:07.733Z,60.90
2018-09-06T07:25:36.231Z,62.77
2018-09-06T07:28:04.729Z,69.80
2018-09-06T07:30:33.216Z,64.23
2018-09-06T07:33:01.737Z,62.17
2018-09-06T07:35:30.220Z,64.07
2018-09-06T07:37:59.101Z,65.30
2018-09-06T07:40:27.655Z,65.23
2018-09-06T07:42:56.175Z,64.33
2018-09-06T07:45:24.705Z,62.97
2018-09-06T07:47:53.674Z,66.23
2018-09-06T07:50:22.985Z,77.20
2018-09-06T07:52:51.552Z,69.33
2018-09-06T07:55:21.619Z,68.97
2018-09-06T07:57:50.222Z,71.63
2018-09-06T08:00:18.771Z,70.87
2018-09-06T08:02:47.293Z,69.70
2018-09-06T08:05:15.820Z,62.20
2018-09-06T08:07:44.833Z,63.27
2018-09-06T08:10:16.322Z,61.23
2018-09-06T08:12:45.576Z,61.67
2018-09-06T08:15:15.802Z,54.20
2018-09-06T08:17:46.040Z,60.00
2018-09-06T08:20:14.779Z,62.20
2018-09-06T08:22:43.433Z,59.50
2018-09-06T08:25:11.966Z,58.63
2018-09-06T08:27:40.573Z,67.07
2018-09-06T08:30:09.426Z,61.87
2018-09-06T08:32:37.918Z,61.70
2018-09-06T08:35:06.457Z,70.87
2018-09-06T08:37:35.031Z,68.40
2018-09-06T08:40:03.570Z,70.20
2018-09-06T08:42:33.043Z,68.77
2018-09-06T08:45:01.591Z,71.90
2018-09-06T08:47:30.153Z,65.00
2018-09-06T08:49:58.673Z,68.33
2018-09-06T08:52:27.378Z,64.97
2018-09-06T08:54:56.264Z,63.43
2018-09-06T08:57:24.807Z,66.60
2018-09-06T08:59:53.334Z,61.53
2018-09-06T09:02:21.954Z,62.93
2018-09-06T09:04:50.431Z,61.63
2018-09-06T09:07:19.021Z,58.37
2018-09-06T09:09:47.628Z,62.40
2018-09-06T09:12:22.938Z,59.70
2018-09-06T09:14:51.433Z,54.93
2018-09-06T09:17:22.752Z,54.87
2018-09-06T09:19:53.071Z,54.93
2018-09-06T09:22:22.095Z,49.30
2018-09-06T09:24:50.600Z,52.17
2018-09-06T09:27:19.141Z,46.40
2018-09-06T09:29:47.647Z,55.23
2018-09-06T09:32:16.234Z,48.10
2018-09-06T09:34:45.197Z,48.13
2018-09-06T09:37:13.805Z,46.23
2018-09-06T09:39:42.836Z,45.53
2018-09-06T09:42:12.034Z,52.53
2018-09-06T09:44:41.002Z,50.03
2018-09-06T09:49:37.526Z,51.30
2018-09-06T09:52:06.081Z,52.23
2018-09-06T09:54:34.614Z,49.33
2018-09-06T09:57:03.318Z,52.20
2018-09-06T09:59:32.753Z,58.13
2018-09-06T10:02:06.630Z,54.60
2018-09-06T10:05:38.743Z,54.83
2018-09-06T10:08:13.970Z,59.97
2018-09-06T10:10:42.657Z,55.17
2018-09-06T10:13:12.248Z,54.03
2018-09-06T10:15:41.362Z,63.53
2018-09-06T10:18:10.439Z,62.20
2018-09-06T10:20:39.292Z,69.60
2018-09-06T10:23:08.034Z,67.07
2018-09-06T10:25:36.593Z,63.43
2018-09-06T10:28:05.227Z,66.47
2018-09-06T10:30:33.778Z,61.10
2018-09-06T10:33:02.625Z,69.23
2018-09-06T10:35:31.226Z,60.10
2018-09-06T10:37:59.682Z,61.00
2018-09-06T10:40:28.254Z,61.30
2018-09-06T10:42:56.753Z,58.43
2018-09-06T10:45:25.734Z,58.20
2018-09-06T10:47:54.317Z,58.20
2018-09-06T10:50:22.825Z,53.23
2018-09-06T10:52:51.289Z,59.60
2018-09-06T10:55:19.802Z,61.97
2018-09-06T10:57:48.356Z,60.43
2018-09-06T11:00:16.926Z,58.97
2018-09-06T11:02:45.737Z,57.77
2018-09-06T11:05:14.290Z,57.67
2018-09-06T11:07:42.851Z,60.60
2018-09-06T11:10:12.115Z,54.03
2018-09-06T11:12:40.658Z,52.60
2018-09-06T11:15:09.256Z,56.77
2018-09-06T11:17:37.738Z,46.87
2018-09-06T11:20:06.419Z,47.43
2018-09-06T11:22:35.208Z,46.03
2018-09-06T11:25:03.429Z,49.00
2018-09-06T11:27:31.998Z,51.07
2018-09-06T11:30:00.509Z,52.93
2018-09-06T11:32:29.170Z,51.23
2018-09-06T11:34:57.738Z,54.80
2018-09-06T11:37:26.235Z,54.07
2018-09-06T11:39:55.161Z,52.60
2018-09-06T11:42:23.700Z,59.67
2018-09-06T11:44:52.201Z,57.60
2018-09-06T11:47:20.811Z,61.00
2018-09-06T11:49:49.294Z,58.40
2018-09-06T11:52:17.933Z,59.80
2018-09-06T11:54:46.482Z,58.83
2018-09-06T11:57:15.034Z,57.60
2018-09-06T11:59:43.579Z,54.20
2018-09-06T12:02:12.221Z,49.73
2018-09-06T12:04:40.714Z,53.53
2018-09-06T12:07:09.233Z,51.53
2018-09-06T12:09:37.819Z,50.43
2018-09-06T12:12:06.932Z,55.40
2018-09-06T12:14:35.539Z,51.50
2018-09-06T12:17:04.094Z,53.70
2018-09-06T12:19:32.676Z,52.70
2018-09-06T12:22:01.783Z,48.77
2018-09-06T12:24:30.357Z,52.40
2018-09-06T12:26:58.916Z,51.13
2018-09-06T12:29:27.689Z,49.77
2018-09-06T12:31:56.310Z,50.07
2018-09-06T12:34:24.836Z,52.30
2018-09-06T12:36:53.372Z,54.67
2018-09-06T12:39:21.945Z,49.93
2018-09-06T12:41:50.550Z,48.83
2018-09-06T12:44:19.042Z,49.37
2018-09-06T12:46:47.595Z,45.10
2018-09-06T12:49:16.738Z,44.80
2018-09-06T12:51:45.331Z,46.53
2018-09-06T12:54:13.846Z,44.27
2018-09-06T12:56:42.446Z,38.57
2018-09-06T12:59:10.933Z,42.07
2018-09-06T13:01:39.472Z,44.63
2018-09-06T13:04:07.975Z,45.73
2018-09-06T13:06:36.460Z,44.90
2018-09-06T13:09:06.223Z,41.13
2018-09-06T13:11:35.019Z,43.77
2018-09-06T13:14:03.606Z,41.40
2018-09-06T13:16:32.163Z,46.30
2018-09-06T13:19:00.835Z,44.50
2018-09-06T13:21:29.463Z,40.43
2018-09-06T13:23:58.004Z,42.23
2018-09-06T13:26:26.505Z,39.73
2018-09-06T13:28:55.058Z,41.10
2018-09-06T13:31:24.370Z,44.97
2018-09-06T13:33:52.874Z,39.13
2018-09-06T13:36:21.439Z,38.70
2018-09-06T13:38:50.330Z,41.03
2018-09-06T13:41:18.862Z,37.67
2018-09-06T13:43:47.399Z,36.83
2018-09-06T13:46:15.982Z,44.60
2018-09-06T13:48:44.669Z,39.40
2018-09-06T13:51:13.286Z,42.37
2018-09-06T13:53:41.831Z,38.97
2018-09-06T13:56:10.462Z,36.33
2018-09-06T13:58:39.104Z,42.57
2018-09-06T14:01:07.979Z,39.20
2018-09-06T14:03:36.461Z,39.83
2018-09-06T14:06:04.983Z,43.23
2018-09-06T14:08:33.469Z,38.30
2018-09-06T14:11:02.005Z,36.80
2018-09-06T14:13:30.509Z,32.60
2018-09-06T14:15:59.122Z,38.40
2018-09-06T14:18:27.930Z,29.20
2018-09-06T14:20:56.491Z,29.43
2018-09-06T14:23:25.017Z,33.07
2018-09-06T14:25:53.574Z,30.40
2018-09-06T14:28:22.064Z,30.37
2018-09-06T14:30:50.629Z,32.77
2018-09-06T14:33:19.150Z,28.57
2018-09-06T14:35:47.661Z,32.60
2018-09-06T14:38:16.349Z,28.63
2018-09-06T14:40:44.809Z,31.53
2018-09-06T14:43:13.354Z,32.90
2018-09-06T14:45:41.868Z,29.80
2018-09-06T14:48:10.415Z,30.03
2018-09-06T14:50:38.942Z,38.03
2018-09-06T14:53:07.504Z,26.77
2018-09-06T14:55:36.111Z,29.60
2018-09-06T14:58:03.602Z,30.00
2018-09-06T15:00:32.229Z,26.27
2018-09-06T15:03:00.806Z,27.53
2018-09-06T15:05:29.330Z,26.00
2018-09-06T15:07:57.852Z,24.53
2018-09-06T15:10:26.398Z,26.80
2018-09-06T15:12:54.899Z,24.17
2018-09-06T15:15:23.453Z,23.40
2018-09-06T15:17:52.042Z,30.33
2018-09-06T15:20:20.798Z,27.20
2018-09-06T15:22:49.309Z,31.73
2018-09-06T15:25:17.854Z,29.50
2018-09-06T15:27:46.772Z,33.10
2018-09-06T15:30:15.303Z,28.10
2018-09-06T15:32:43.837Z,30.07
2018-09-06T15:35:12.344Z,29.40
2018-09-06T15:37:40.901Z,31.37
2018-09-06T15:40:09.445Z,29.80
2018-09-06T15:42:37.962Z,33.80
2018-09-06T15:45:06.463Z,29.43
2018-09-06T15:47:35.010Z,33.50
2018-09-06T15:50:03.552Z,34.43
2018-09-06T15:52:32.102Z,29.63
2018-09-06T15:55:00.605Z,33.60
2018-09-06T15:57:29.112Z,32.93
2018-09-06T15:59:57.651Z,36.50
2018-09-06T16:02:26.130Z,33.93
2018-09-06T16:04:54.625Z,34.10
2018-09-06T16:07:25.293Z,43.13
2018-09-06T16:09:53.809Z,46.33
2018-09-06T16:12:22.782Z,42.30
2018-09-06T16:14:51.242Z,37.97
2018-09-06T16:17:21.536Z,39.60
2018-09-06T16:19:50.117Z,39.73
2018-09-06T16:22:19.066Z,43.00
2018-09-06T16:24:47.604Z,43.83
2018-09-06T16:27:16.159Z,40.93
2018-09-06T16:29:44.763Z,38.67
2018-09-06T16:32:13.284Z,45.27
2018-09-06T16:34:41.951Z,43.33
2018-09-06T16:37:10.566Z,40.37
2018-09-06T16:39:39.034Z,39.47
2018-09-06T16:42:11.656Z,33.47
2018-09-06T16:44:40.538Z,38.10
2018-09-06T16:47:09.035Z,36.90
2018-09-06T16:49:37.570Z,36.70
2018-09-06T16:52:06.170Z,37.90
2018-09-06T16:54:36.305Z,31.50
2018-09-06T16:57:05.365Z,30.60
2018-09-06T16:59:33.882Z,32.60
2018-09-06T17:02:02.389Z,34.67
2018-09-06T17:04:30.995Z,33.83
2018-09-06T17:07:00.067Z,32.43
2018-09-06T17:09:28.503Z,32.27
2018-09-06T17:11:57.185Z,35.63
2018-09-06T17:14:25.746Z,39.80
2018-09-06T17:16:54.448Z,36.27
2018-09-06T17:19:23.039Z,36.33
2018-09-06T17:21:51.662Z,41.87
2018-09-06T17:24:20.185Z,40.33
2018-09-06T17:26:48.863Z,38.40
2018-09-06T17:29:17.540Z,36.13
2018-09-06T17:31:46.083Z,35.43
2018-09-06T17:34:14.813Z,36.60
2018-09-06T17:36:43.942Z,35.27
2018-09-06T17:39:13.616Z,32.90
2018-09-06T17:41:42.034Z,28.77
2018-09-06T17:44:13.365Z,27.30
2018-09-06T17:46:42.393Z,27.10
2018-09-06T17:49:11.177Z,27.40
2018-09-06T17:51:40.094Z,28.80
2018-09-06T17:54:08.715Z,26.13
2018-09-06T17:56:37.309Z,25.80
2018-09-06T17:59:06.043Z,27.10
2018-09-06T18:01:37.379Z,34.03
2018-09-06T18:04:06.268Z,26.67
2018-09-06T18:06:34.774Z,30.53
2018-09-06T18:09:05.187Z,34.07
2018-09-06T18:11:33.792Z,30.40
2018-09-06T18:14:02.330Z,30.50
2018-09-06T18:16:30.811Z,31.93
2018-09-06T18:18:59.517Z,35.43
2018-09-06T18:21:28.101Z,36.43
2018-09-06T18:23:57.359Z,31.87
2018-09-06T18:26:32.625Z,32.30
2018-09-06T18:29:01.245Z,32.60
2018-09-06T18:31:30.008Z,33.60
2018-09-06T18:33:58.518Z,36.83
2018-09-06T18:36:27.191Z,35.53
2018-09-06T18:38:55.853Z,36.33
2018-09-06T18:41:24.439Z,33.57
2018-09-06T18:43:52.985Z,34.40
2018-09-06T18:46:21.505Z,32.97
2018-09-06T18:48:50.033Z,38.43
2018-09-06T18:51:18.571Z,32.03
2018-09-06T18:53:47.226Z,33.97
2018-09-06T18:56:15.926Z,32.73
2018-09-06T18:58:44.562Z,32.57
2018-09-06T19:01:13.130Z,32.00
2018-09-06T19:03:42.095Z,30.40
2018-09-06T19:06:10.617Z,30.73
2018-09-06T19:08:39.230Z,28.70
2018-09-06T19:11:07.918Z,31.53
2018-09-06T19:13:36.404Z,35.17
2018-09-06T19:16:04.944Z,29.97
2018-09-06T19:18:33.528Z,35.20
2018-09-06T19:21:02.271Z,33.17
2018-09-06T19:23:30.836Z,35.50
2018-09-06T19:25:59.590Z,38.20
2018-09-06T19:28:28.663Z,28.67
2018-09-06T19:30:57.145Z,33.10
2018-09-06T19:33:25.642Z,25.50
2018-09-06T19:35:54.211Z,29.93
2018-09-06T19:38:22.726Z,29.77
2018-09-06T19:40:51.246Z,30.80
2018-09-06T19:43:19.860Z,29.50
2018-09-06T19:45:48.811Z,35.10
2018-09-06T19:48:17.305Z,25.77
2018-09-06T19:50:46.432Z,25.10
2018-09-06T19:53:14.970Z,26.77
2018-09-06T19:55:43.484Z,26.07
2018-09-06T19:58:12.099Z,21.23
2018-09-06T20:00:40.702Z,23.43
2018-09-06T20:03:09.266Z,23.10
2018-09-06T20:05:37.770Z,25.10
2018-09-06T20:08:06.662Z,25.57
2018-09-06T20:13:09.932Z,23.90
2018-09-06T20:15:38.585Z,23.00
2018-09-06T20:18:07.117Z,28.07
2018-09-06T20:20:35.618Z,29.30
2018-09-06T20:23:04.130Z,29.50
2018-09-06T20:25:32.662Z,31.43
2018-09-06T20:28:01.196Z,26.87
2018-09-06T20:30:29.640Z,30.43
2018-09-06T20:32:58.994Z,28.07
2018-09-06T20:35:27.517Z,24.87
2018-09-06T20:37:56.042Z,27.37
2018-09-06T20:40:24.966Z,33.43
2018-09-06T20:42:53.632Z,27.60
2018-09-06T20:45:22.113Z,27.70
2018-09-06T20:47:50.710Z,27.17
2018-09-06T20:50:19.303Z,27.93
2018-09-06T20:52:47.906Z,26.83
2018-09-06T20:55:16.408Z,28.00
2018-09-06T20:57:44.980Z,27.93
2018-09-06T21:00:13.458Z,29.10
2018-09-06T21:02:41.947Z,27.97
2018-09-06T21:05:10.509Z,28.73
2018-09-06T21:07:39.161Z,27.97
2018-09-06T21:10:07.688Z,27.37
2018-09-06T21:12:36.131Z,26.93
2018-09-06T21:15:04.652Z,31.20
2018-09-06T21:17:33.238Z,33.20
2018-09-06T21:20:01.746Z,29.07
2018-09-06T21:22:30.244Z,29.03
2018-09-06T21:24:58.729Z,26.30
2018-09-06T21:27:27.387Z,25.90
2018-09-06T21:29:56.052Z,26.63
2018-09-06T21:32:24.636Z,26.77
2018-09-06T21:34:53.205Z,25.93
2018-09-06T21:37:21.675Z,24.57
2018-09-06T21:39:50.226Z,27.67
2018-09-06T21:42:18.704Z,26.53
2018-09-06T21:44:47.351Z,27.20
2018-09-06T21:47:15.930Z,26.37
2018-09-06T21:49:44.465Z,21.37
2018-09-06T21:52:13.061Z,24.50
2018-09-06T21:54:41.613Z,26.83
2018-09-06T21:57:10.137Z,23.53
2018-09-06T21:59:38.636Z,21.33
2018-09-06T22:02:07.240Z,20.43
2018-09-06T22:04:35.875Z,19.43
2018-09-06T22:07:04.353Z,18.47
2018-09-06T22:09:32.871Z,16.27
2018-09-06T22:12:01.362Z,18.33
2018-09-06T22:14:29.956Z,14.97
2018-09-06T22:16:58.497Z,16.93
2018-09-06T22:19:27.044Z,17.20
2018-09-06T22:21:55.570Z,23.50
2018-09-06T22:24:24.174Z,21.83
2018-09-06T22:26:52.687Z,17.53
2018-09-06T22:29:21.211Z,20.30
2018-09-06T22:31:50.344Z,18.37
2018-09-06T22:34:18.884Z,16.47
2018-09-06T22:36:47.382Z,16.67
2018-09-06T22:39:15.902Z,17.00
2018-09-06T22:41:44.440Z,25.83
2018-09-06T22:44:12.994Z,18.47
2018-09-06T22:46:41.535Z,19.87
2018-09-06T22:49:10.041Z,28.27
2018-09-06T22:51:38.621Z,27.17
2018-09-06T22:54:07.160Z,23.80
2018-09-06T22:56:36.266Z,24.13
2018-09-06T22:59:05.220Z,26.20
2018-09-06T23:01:33.797Z,20.53
2018-09-06T23:04:02.375Z,18.60
2018-09-06T23:06:31.048Z,21.90
2018-09-06T23:08:59.624Z,21.33
2018-09-06T23:11:28.581Z,27.47
2018-09-06T23:13:57.093Z,23.93
2018-09-06T23:16:25.711Z,19.50
2018-09-06T23:18:55.835Z,24.27
2018-09-06T23:21:24.341Z,21.87
2018-09-06T23:23:52.814Z,19.10
2018-09-06T23:26:21.702Z,23.07
2018-09-06T23:28:50.202Z,26.03
2018-09-06T23:31:18.826Z,20.87
2018-09-06T23:33:47.361Z,26.90
2018-09-06T23:36:15.859Z,27.20
2018-09-06T23:38:44.350Z,26.53
2018-09-06T23:41:12.938Z,22.70
2018-09-06T23:43:41.527Z,23.00
2018-09-06T23:46:10.065Z,20.60
2018-09-06T23:48:38.709Z,25.03
2018-09-06T23:51:07.536Z,26.50
2018-09-06T23:53:36.042Z,24.53
2018-09-06T23:56:04.554Z,30.23
2018-09-06T23:58:33.077Z,26.47
